createdAt,value
2022-12-09T00:00:28.889Z,10.30
2022-12-09T00:02:56.269Z,10.30
2022-12-09T00:05:23.227Z,10.30
2022-12-09T00:07:50.083Z,10.30
2022-12-09T00:10:17.116Z,10.40
2022-12-09T00:12:44.013Z,10.40
2022-12-09T00:15:11.218Z,10.40
2022-12-09T00:17:38.273Z,10.40
2022-12-09T00:20:06.328Z,10.40
2022-12-09T00:22:33.425Z,10.40
2022-12-09T00:25:00.412Z,10.40
2022-12-09T00:27:27.338Z,10.40
2022-12-09T00:29:54.141Z,10.40
2022-12-09T00:32:21.116Z,10.40
2022-12-09T00:34:49.028Z,10.30
2022-12-09T00:37:16.207Z,10.40
2022-12-09T00:39:43.171Z,10.30
2022-12-09T00:42:09.985Z,10.30
2022-12-09T00:44:36.772Z,10.20
2022-12-09T00:47:03.724Z,10.20
2022-12-09T00:49:30.655Z,10.10
2022-12-09T00:51:57.580Z,10.10
2022-12-09T00:54:24.639Z,10.10
2022-12-09T00:56:51.595Z,10.00
2022-12-09T00:59:18.482Z,10.00
2022-12-09T01:01:45.422Z,9.90
2022-12-09T01:04:12.404Z,9.90
2022-12-09T01:06:39.684Z,9.90
2022-12-09T01:09:06.694Z,9.80
2022-12-09T01:11:33.822Z,9.80
2022-12-09T01:14:03.072Z,9.70
2022-12-09T01:16:32.804Z,9.70
2022-12-09T01:19:01.924Z,9.70
2022-12-09T01:21:30.004Z,9.60
2022-12-09T01:23:56.912Z,9.60
2022-12-09T01:26:24.075Z,9.60
2022-12-09T01:28:52.946Z,9.50
2022-12-09T01:31:23.150Z,9.50
2022-12-09T01:33:50.547Z,9.50
2022-12-09T01:36:20.992Z,9.40
2022-12-09T01:38:48.595Z,9.40
2022-12-09T01:41:17.172Z,9.40
2022-12-09T01:43:44.850Z,9.40
2022-12-09T01:46:12.065Z,9.40
2022-12-09T01:48:43.439Z,9.30
2022-12-09T01:51:10.649Z,9.30
2022-12-09T01:53:41.237Z,9.30
2022-12-09T01:56:17.016Z,9.30
2022-12-09T01:58:45.280Z,9.20
2022-12-09T02:01:12.677Z,9.20
2022-12-09T02:03:39.875Z,9.10
2022-12-09T02:06:07.030Z,9.10
2022-12-09T02:08:34.084Z,9.00
2022-12-09T02:11:03.854Z,9.00
2022-12-09T02:13:49.356Z,9.00
2022-12-09T02:16:21.189Z,9.00
2022-12-09T02:19:05.792Z,9.00
2022-12-09T02:21:44.076Z,9.00
2022-12-09T02:24:17.575Z,8.90
2022-12-09T02:26:57.081Z,8.90
2022-12-09T02:30:02.173Z,8.90
2022-12-09T02:33:21.190Z,8.80
2022-12-09T02:35:50.500Z,8.80
2022-12-09T02:38:22.823Z,8.70
2022-12-09T02:40:52.578Z,8.70
2022-12-09T02:43:23.028Z,8.70
2022-12-09T02:45:51.861Z,8.80
2022-12-09T02:48:23.581Z,8.70
2022-12-09T02:50:52.870Z,8.70
2022-12-09T02:53:20.952Z,8.70
2022-12-09T02:55:49.731Z,8.70
2022-12-09T02:58:16.745Z,8.70
2022-12-09T03:00:44.185Z,8.70
2022-12-09T03:03:16.637Z,8.70
2022-12-09T03:05:49.536Z,8.70
2022-12-09T03:08:47.639Z,8.70
2022-12-09T03:11:19.008Z,8.70
2022-12-09T03:13:52.461Z,8.60
2022-12-09T03:16:37.730Z,8.60
2022-12-09T03:19:35.074Z,8.60
2022-12-09T03:22:07.668Z,8.60
2022-12-09T03:24:39.529Z,8.60
2022-12-09T03:27:09.750Z,8.50
2022-12-09T03:29:41.499Z,8.50
2022-12-09T03:32:11.872Z,8.50
2022-12-09T03:34:42.572Z,8.50
2022-12-09T03:37:12.134Z,8.50
2022-12-09T03:39:40.283Z,8.50
2022-12-09T03:42:17.806Z,8.50
2022-12-09T03:45:01.151Z,8.40
2022-12-09T03:47:28.697Z,8.40
2022-12-09T03:49:55.950Z,8.40
2022-12-09T03:52:40.933Z,8.40
2022-12-09T03:55:19.405Z,8.40
2022-12-09T03:57:50.922Z,8.30
2022-12-09T04:00:18.408Z,8.30
2022-12-09T04:02:46.248Z,8.30
2022-12-09T04:05:13.888Z,8.20
2022-12-09T04:07:41.671Z,8.20
2022-12-09T04:10:09.516Z,8.10
2022-12-09T04:12:36.861Z,8.10
2022-12-09T04:15:04.141Z,8.00
2022-12-09T04:17:31.382Z,8.10
2022-12-09T04:19:58.463Z,8.10
2022-12-09T04:22:25.298Z,8.10
2022-12-09T04:24:52.452Z,8.10
2022-12-09T04:27:19.647Z,8.10
2022-12-09T04:29:46.480Z,8.20
2022-12-09T04:32:13.536Z,8.10
2022-12-09T04:34:40.783Z,8.20
2022-12-09T04:37:08.138Z,8.10
2022-12-09T04:39:35.366Z,8.10
2022-12-09T04:42:02.572Z,8.00
2022-12-09T04:44:29.436Z,8.00
2022-12-09T04:46:56.424Z,8.00
2022-12-09T04:49:23.797Z,8.00
2022-12-09T04:51:50.986Z,8.00
2022-12-09T04:54:18.059Z,8.00
2022-12-09T04:56:45.089Z,8.00
2022-12-09T04:59:11.970Z,8.00
2022-12-09T05:01:39.273Z,8.00
2022-12-09T05:04:09.586Z,7.90
2022-12-09T05:06:36.783Z,7.80
2022-12-09T05:09:04.425Z,7.80
2022-12-09T05:11:31.547Z,7.70
2022-12-09T05:13:59.157Z,7.70
2022-12-09T05:16:26.549Z,7.70
2022-12-09T05:18:54.025Z,7.70
2022-12-09T05:21:21.808Z,7.70
2022-12-09T05:23:49.590Z,7.80
2022-12-09T05:26:19.440Z,7.80
2022-12-09T05:28:46.888Z,7.80
2022-12-09T05:31:17.961Z,7.90
2022-12-09T05:33:45.942Z,7.90
2022-12-09T05:36:15.275Z,7.90
2022-12-09T05:38:43.126Z,8.00
2022-12-09T05:41:10.514Z,8.00
2022-12-09T05:43:37.764Z,8.00
2022-12-09T05:46:06.731Z,8.00
2022-12-09T05:48:37.429Z,8.00
2022-12-09T05:51:08.017Z,8.00
2022-12-09T05:53:35.343Z,8.00
2022-12-09T05:56:03.005Z,8.00
2022-12-09T05:58:30.281Z,8.10
2022-12-09T06:01:07.098Z,8.10
2022-12-09T06:03:35.503Z,8.10
2022-12-09T06:06:10.486Z,8.10
2022-12-09T06:08:38.783Z,8.20
2022-12-09T06:11:15.551Z,8.20
2022-12-09T06:13:44.076Z,8.20
2022-12-09T06:16:12.218Z,8.30
2022-12-09T06:18:39.424Z,8.20
2022-12-09T06:21:11.504Z,8.20
2022-12-09T06:23:43.607Z,8.20
2022-12-09T06:26:26.144Z,8.30
2022-12-09T06:28:54.252Z,8.30
2022-12-09T06:31:22.160Z,8.30
2022-12-09T06:33:55.290Z,8.30
2022-12-09T06:36:25.073Z,8.40
2022-12-09T06:38:52.665Z,8.40
2022-12-09T06:41:19.998Z,8.40
2022-12-09T06:43:47.031Z,8.40
2022-12-09T06:46:25.031Z,8.40
2022-12-09T06:48:53.841Z,8.40
2022-12-09T06:51:22.876Z,8.40
2022-12-09T06:53:50.700Z,8.40
2022-12-09T06:56:17.776Z,8.40
2022-12-09T06:58:46.482Z,8.40
2022-12-09T07:01:20.783Z,8.40
2022-12-09T07:03:50.525Z,8.50
2022-12-09T07:06:42.126Z,8.40
2022-12-09T07:09:20.981Z,8.40
2022-12-09T07:11:49.014Z,8.40
2022-12-09T07:14:18.299Z,8.30
2022-12-09T07:16:46.935Z,8.40
2022-12-09T07:19:23.015Z,8.30
2022-12-09T07:21:50.867Z,8.40
2022-12-09T07:24:19.354Z,8.40
2022-12-09T07:26:46.982Z,8.40
2022-12-09T07:29:14.054Z,8.40
2022-12-09T07:31:41.433Z,8.40
2022-12-09T07:34:10.242Z,8.50
2022-12-09T07:36:38.040Z,8.40
2022-12-09T07:39:07.886Z,8.40
2022-12-09T07:41:35.416Z,8.40
2022-12-09T07:44:02.635Z,8.50
2022-12-09T07:46:29.945Z,8.50
2022-12-09T07:48:57.699Z,8.50
2022-12-09T07:51:26.035Z,8.50
2022-12-09T07:53:53.783Z,8.50
2022-12-09T07:56:21.799Z,8.50
2022-12-09T07:58:51.283Z,8.50
2022-12-09T08:01:24.580Z,8.50
2022-12-09T08:03:51.832Z,8.50
2022-12-09T08:06:22.471Z,8.50
2022-12-09T08:08:50.236Z,8.50
2022-12-09T08:11:24.659Z,8.60
2022-12-09T08:13:53.083Z,8.60
2022-12-09T08:16:22.013Z,8.60
2022-12-09T08:18:50.671Z,8.60
2022-12-09T08:21:24.876Z,8.70
2022-12-09T08:23:52.338Z,8.70
2022-12-09T08:26:22.334Z,8.70
2022-12-09T08:28:50.404Z,8.70
2022-12-09T08:31:23.273Z,8.80
2022-12-09T08:33:50.804Z,8.80
2022-12-09T08:36:27.405Z,8.80
2022-12-09T08:38:55.581Z,8.80
2022-12-09T08:41:46.138Z,8.80
2022-12-09T08:44:18.153Z,8.90
2022-12-09T08:46:48.414Z,8.90
2022-12-09T08:49:20.215Z,8.90
2022-12-09T08:51:49.358Z,8.90
2022-12-09T08:54:16.677Z,8.90
2022-12-09T08:56:52.399Z,8.90
2022-12-09T08:59:20.148Z,8.90
2022-12-09T09:01:48.339Z,9.00
2022-12-09T09:04:17.478Z,9.00
2022-12-09T09:06:48.412Z,9.00
2022-12-09T09:09:16.969Z,9.00
2022-12-09T09:11:44.869Z,9.00
2022-12-09T09:14:13.372Z,9.00
2022-12-09T09:16:43.109Z,8.90
2022-12-09T09:19:17.606Z,8.90
2022-12-09T09:21:45.035Z,8.90
2022-12-09T09:24:16.082Z,8.90
2022-12-09T09:26:43.519Z,8.90
2022-12-09T09:29:15.993Z,8.80
2022-12-09T09:31:43.218Z,8.90
2022-12-09T09:34:11.118Z,8.80
2022-12-09T09:36:39.684Z,8.90
2022-12-09T09:39:06.950Z,8.90
2022-12-09T09:41:52.538Z,8.90
2022-12-09T09:44:44.048Z,9.00
2022-12-09T09:47:38.133Z,8.90
2022-12-09T09:50:31.164Z,9.00
2022-12-09T09:52:58.567Z,9.00
2022-12-09T09:55:44.673Z,9.00
2022-12-09T09:58:50.494Z,9.00
2022-12-09T10:01:19.155Z,9.00
2022-12-09T10:04:14.339Z,9.00
2022-12-09T10:07:04.217Z,9.10
2022-12-09T10:10:03.347Z,9.10
2022-12-09T10:12:46.218Z,9.10
2022-12-09T10:15:20.689Z,9.10
2022-12-09T10:17:55.331Z,9.10
2022-12-09T10:20:33.981Z,9.20
2022-12-09T10:23:04.106Z,9.20
2022-12-09T10:25:34.768Z,9.20
2022-12-09T10:28:08.697Z,9.30
2022-12-09T10:30:43.610Z,9.30
2022-12-09T10:33:16.599Z,9.30
2022-12-09T10:35:43.549Z,9.30
2022-12-09T10:38:14.799Z,9.30
2022-12-09T10:40:55.227Z,9.30
2022-12-09T10:43:37.451Z,9.40
2022-12-09T10:46:25.579Z,9.30
2022-12-09T10:48:58.801Z,9.30
2022-12-09T10:51:27.410Z,9.30
2022-12-09T10:54:02.695Z,9.40
2022-12-09T10:56:34.268Z,9.30
2022-12-09T10:59:24.847Z,9.40
2022-12-09T11:01:55.877Z,9.40
2022-12-09T11:04:26.857Z,9.40
2022-12-09T11:07:00.124Z,9.40
2022-12-09T11:09:33.724Z,9.40
2022-12-09T11:12:04.255Z,9.40
2022-12-09T11:14:38.193Z,9.40
2022-12-09T11:17:17.846Z,9.40
2022-12-09T11:19:49.761Z,9.50
2022-12-09T11:22:39.652Z,9.50
2022-12-09T11:25:13.475Z,9.50
2022-12-09T11:28:03.401Z,9.50
2022-12-09T11:30:52.269Z,9.50
2022-12-09T11:33:31.628Z,9.50
2022-12-09T11:36:19.070Z,9.50
2022-12-09T11:38:48.648Z,9.50
2022-12-09T11:41:41.131Z,9.50
2022-12-09T11:44:27.901Z,9.40
2022-12-09T11:47:08.048Z,9.30
2022-12-09T11:49:57.140Z,9.30
2022-12-09T11:52:28.583Z,9.20
2022-12-09T11:55:17.169Z,9.20
2022-12-09T11:57:44.130Z,9.20
2022-12-09T12:00:21.739Z,9.20
2022-12-09T12:03:06.767Z,9.20
2022-12-09T12:05:44.892Z,9.20
2022-12-09T12:08:30.323Z,9.20
2022-12-09T12:11:19.489Z,9.20
2022-12-09T12:13:52.916Z,9.10
2022-12-09T12:16:39.668Z,9.10
2022-12-09T12:19:21.119Z,9.20
2022-12-09T12:22:21.485Z,9.10
2022-12-09T12:25:12.505Z,9.20
2022-12-09T12:28:05.941Z,9.20
2022-12-09T12:30:41.676Z,9.20
2022-12-09T12:36:26.089Z,9.20
2022-12-09T12:39:41.016Z,9.20
2022-12-09T12:42:24.266Z,9.20
2022-12-09T12:45:18.538Z,9.20
2022-12-09T12:48:02.982Z,9.20
2022-12-09T12:50:48.134Z,9.20
2022-12-09T12:53:41.263Z,9.20
2022-12-09T12:56:33.001Z,9.10
2022-12-09T12:59:21.227Z,9.10
2022-12-09T13:02:13.569Z,9.10
2022-12-09T13:04:48.674Z,9.20
2022-12-09T13:07:41.582Z,9.20
2022-12-09T13:10:17.321Z,9.20
2022-12-09T13:12:56.858Z,9.20
2022-12-09T13:15:39.963Z,9.20
2022-12-09T13:18:33.159Z,9.20
2022-12-09T13:21:02.384Z,9.20
2022-12-09T13:24:10.530Z,9.20
2022-12-09T13:26:58.871Z,9.20
2022-12-09T13:29:49.351Z,9.20
2022-12-09T13:32:55.563Z,9.20
2022-12-09T13:35:30.586Z,9.20
2022-12-09T13:37:59.333Z,9.20
2022-12-09T13:40:28.317Z,9.20
2022-12-09T13:43:04.049Z,9.20
2022-12-09T13:45:51.696Z,9.20
2022-12-09T13:48:18.713Z,9.20
2022-12-09T13:50:57.481Z,9.20
2022-12-09T13:53:34.984Z,9.20
2022-12-09T13:56:04.832Z,9.20
2022-12-09T13:58:57.409Z,9.20
2022-12-09T14:01:36.246Z,9.20
2022-12-09T14:04:24.463Z,9.20
2022-12-09T14:06:57.552Z,9.20
2022-12-09T14:09:24.512Z,9.20
2022-12-09T14:12:00.510Z,9.20
2022-12-09T14:14:27.380Z,9.30
2022-12-09T14:17:03.284Z,9.30
2022-12-09T14:19:55.585Z,9.30
2022-12-09T14:22:24.833Z,9.30
2022-12-09T14:25:27.549Z,9.30
2022-12-09T14:28:24.317Z,9.30
2022-12-09T14:31:00.821Z,9.20
2022-12-09T14:33:32.828Z,9.20
2022-12-09T14:36:05.603Z,9.20
2022-12-09T14:39:24.362Z,9.30
2022-12-09T14:41:58.605Z,9.30
2022-12-09T14:44:59.243Z,9.20
2022-12-09T14:47:32.715Z,9.30
2022-12-09T14:50:15.675Z,9.20
2022-12-09T14:52:53.210Z,9.20
2022-12-09T14:55:23.530Z,9.20
2022-12-09T14:57:52.069Z,9.20
2022-12-09T15:00:30.648Z,9.20
2022-12-09T15:03:30.714Z,9.30
2022-12-09T15:05:58.049Z,9.30
2022-12-09T15:08:43.087Z,9.30
2022-12-09T15:11:18.039Z,9.30
2022-12-09T15:13:51.235Z,9.30
2022-12-09T15:16:21.885Z,9.30
2022-12-09T15:18:50.129Z,9.40
2022-12-09T15:21:31.232Z,9.40
2022-12-09T15:24:00.020Z,9.40
2022-12-09T15:26:29.272Z,9.40
2022-12-09T15:29:01.731Z,9.40
2022-12-09T15:31:30.928Z,9.40
2022-12-09T15:34:07.618Z,9.50
2022-12-09T15:36:44.133Z,9.50
2022-12-09T15:39:39.836Z,9.40
2022-12-09T15:42:11.823Z,9.50
2022-12-09T15:44:53.858Z,9.50
2022-12-09T15:47:26.093Z,9.40
2022-12-09T15:50:00.993Z,9.40
2022-12-09T15:52:35.080Z,9.30
2022-12-09T15:55:06.989Z,9.30
2022-12-09T15:57:35.664Z,9.40
2022-12-09T16:00:03.729Z,9.30
2022-12-09T16:02:34.180Z,9.30
2022-12-09T16:05:04.912Z,9.30
2022-12-09T16:07:33.017Z,9.30
2022-12-09T16:10:04.258Z,9.30
2022-12-09T16:12:32.592Z,9.30
2022-12-09T16:14:59.765Z,9.30
2022-12-09T16:17:32.698Z,9.30
2022-12-09T16:20:19.566Z,9.30
2022-12-09T16:22:49.244Z,9.30
2022-12-09T16:25:22.320Z,9.30
2022-12-09T16:27:56.004Z,9.30
2022-12-09T16:30:25.653Z,9.30
2022-12-09T16:32:55.117Z,9.30
2022-12-09T16:35:43.493Z,9.30
2022-12-09T16:38:10.396Z,9.30
2022-12-09T16:40:46.716Z,9.30
2022-12-09T16:43:20.367Z,9.30
2022-12-09T16:45:47.334Z,9.30
2022-12-09T16:48:15.687Z,9.30
2022-12-09T16:50:50.421Z,9.30
2022-12-09T16:53:30.217Z,9.40
2022-12-09T16:56:02.862Z,9.40
2022-12-09T16:58:32.390Z,9.40
2022-12-09T17:01:00.868Z,9.40
2022-12-09T17:03:40.744Z,9.40
2022-12-09T17:06:12.730Z,9.40
2022-12-09T17:08:39.783Z,9.40
2022-12-09T17:11:07.130Z,9.40
2022-12-09T17:13:34.369Z,9.40
2022-12-09T17:16:01.817Z,9.30
2022-12-09T17:18:29.694Z,9.40
2022-12-09T17:21:00.665Z,9.30
2022-12-09T17:23:28.052Z,9.30
2022-12-09T17:26:03.870Z,9.20
2022-12-09T17:28:31.344Z,9.20
2022-12-09T17:30:58.736Z,9.20
2022-12-09T17:33:27.306Z,9.20
2022-12-09T17:35:54.968Z,9.20
2022-12-09T17:38:22.323Z,9.20
2022-12-09T17:40:49.405Z,9.20
2022-12-09T17:43:16.467Z,9.20
2022-12-09T17:45:43.395Z,9.20
2022-12-09T17:48:10.251Z,9.20
2022-12-09T17:50:40.462Z,9.20
2022-12-09T17:53:07.643Z,9.20
2022-12-09T17:55:34.599Z,9.20
2022-12-09T17:58:01.348Z,9.30
2022-12-09T18:00:28.389Z,9.30
2022-12-09T18:02:55.265Z,9.30
2022-12-09T18:05:22.270Z,9.30
2022-12-09T18:07:49.348Z,9.30
2022-12-09T18:10:16.282Z,9.30
2022-12-09T18:12:43.168Z,9.30
2022-12-09T18:15:10.482Z,9.20
2022-12-09T18:17:37.295Z,9.20
2022-12-09T18:20:04.980Z,9.20
2022-12-09T18:22:32.152Z,9.20
2022-12-09T18:24:59.141Z,9.20
2022-12-09T18:27:26.173Z,9.20
2022-12-09T18:29:53.009Z,9.20
2022-12-09T18:32:19.882Z,9.20
2022-12-09T18:34:46.888Z,9.20
2022-12-09T18:37:13.956Z,9.20
2022-12-09T18:39:41.290Z,9.20
2022-12-09T18:42:09.152Z,9.20
2022-12-09T18:44:36.183Z,9.20
2022-12-09T18:47:03.056Z,9.20
2022-12-09T18:49:30.226Z,9.20
2022-12-09T18:51:59.419Z,9.10
2022-12-09T18:54:28.264Z,9.10
2022-12-09T18:56:56.604Z,9.20
2022-12-09T18:59:25.451Z,9.10
2022-12-09T19:01:53.260Z,9.10
2022-12-09T19:04:23.453Z,9.10
2022-12-09T19:06:54.643Z,9.10
2022-12-09T19:09:24.292Z,9.10
2022-12-09T19:11:52.888Z,9.10
2022-12-09T19:14:21.781Z,9.10
2022-12-09T19:16:49.538Z,9.10
2022-12-09T19:19:19.863Z,9.10
2022-12-09T19:21:47.525Z,9.10
2022-12-09T19:24:21.074Z,9.00
2022-12-09T19:26:48.946Z,9.10
2022-12-09T19:29:17.696Z,9.10
2022-12-09T19:31:47.480Z,9.10
2022-12-09T19:34:28.477Z,9.10
2022-12-09T19:37:00.331Z,9.10
2022-12-09T19:39:31.384Z,9.10
2022-12-09T19:41:59.352Z,9.00
2022-12-09T19:44:52.376Z,9.10
2022-12-09T19:47:13.953Z,9.00
2022-12-09T19:49:42.586Z,9.10
2022-12-09T19:52:09.595Z,9.10
2022-12-09T19:54:36.524Z,9.00
2022-12-09T19:57:03.670Z,9.00
2022-12-09T19:59:30.968Z,9.00
2022-12-09T20:01:57.855Z,8.90
2022-12-09T20:04:48.047Z,9.00
2022-12-09T20:07:13.370Z,8.90
2022-12-09T20:09:40.358Z,8.90
2022-12-09T20:12:07.488Z,8.90
2022-12-09T20:14:34.440Z,8.90
2022-12-09T20:17:01.260Z,8.90
2022-12-09T20:19:28.183Z,8.90
2022-12-09T20:21:55.338Z,8.90
2022-12-09T20:24:22.388Z,8.90
2022-12-09T20:26:49.569Z,8.90
2022-12-09T20:29:16.364Z,8.90
2022-12-09T20:31:43.335Z,8.90
2022-12-09T20:34:16.083Z,8.90
2022-12-09T20:36:44.999Z,8.90
2022-12-09T20:39:17.556Z,8.90
2022-12-09T20:41:44.742Z,8.90
2022-12-09T20:44:12.937Z,8.90
2022-12-09T20:46:41.760Z,8.80
2022-12-09T20:49:09.951Z,8.80
2022-12-09T20:51:39.303Z,8.80
2022-12-09T20:54:07.996Z,8.90
2022-12-09T20:56:35.594Z,8.90
2022-12-09T20:59:03.237Z,8.80
2022-12-09T21:01:35.031Z,8.70
2022-12-09T21:04:03.345Z,8.70
2022-12-09T21:06:33.001Z,8.70
2022-12-09T21:09:05.670Z,8.70
2022-12-09T21:11:32.617Z,8.70
2022-12-09T21:14:02.080Z,8.70
2022-12-09T21:16:32.179Z,8.70
2022-12-09T21:19:02.072Z,8.70
2022-12-09T21:21:31.260Z,8.70
2022-12-09T21:23:58.876Z,8.70
2022-12-09T21:26:26.355Z,8.60
2022-12-09T21:28:55.699Z,8.60
2022-12-09T21:31:29.354Z,8.50
2022-12-09T21:33:58.709Z,8.50
2022-12-09T21:36:31.218Z,8.50
2022-12-09T21:38:58.539Z,8.60
2022-12-09T21:41:29.150Z,8.60
2022-12-09T21:43:56.327Z,8.60
2022-12-09T21:46:26.416Z,8.60
2022-12-09T21:49:01.574Z,8.60
2022-12-09T21:51:31.181Z,8.50
2022-12-09T21:53:57.949Z,8.50
2022-12-09T21:56:27.378Z,8.50
2022-12-09T21:58:56.437Z,8.50
2022-12-09T22:01:26.867Z,8.50
2022-12-09T22:03:54.589Z,8.50
2022-12-09T22:06:22.122Z,8.60
2022-12-09T22:08:49.664Z,8.60
2022-12-09T22:11:22.279Z,8.60
2022-12-09T22:13:49.768Z,8.60
2022-12-09T22:16:20.396Z,8.50
2022-12-09T22:18:48.075Z,8.60
2022-12-09T22:21:26.396Z,8.60
2022-12-09T22:23:55.546Z,8.60
2022-12-09T22:26:23.219Z,8.60
2022-12-09T22:28:50.763Z,8.60
2022-12-09T22:31:22.754Z,8.60
2022-12-09T22:33:51.241Z,8.50
2022-12-09T22:36:19.178Z,8.50
2022-12-09T22:38:47.089Z,8.50
2022-12-09T22:41:21.977Z,8.50
2022-12-09T22:43:49.981Z,8.50
2022-12-09T22:46:23.283Z,8.50
2022-12-09T22:48:50.707Z,8.50
2022-12-09T22:51:23.879Z,8.50
2022-12-09T22:53:52.819Z,8.60
2022-12-09T22:56:20.913Z,8.60
2022-12-09T22:58:48.292Z,8.50
2022-12-09T23:01:23.650Z,8.50
2022-12-09T23:03:50.604Z,8.50
2022-12-09T23:06:20.227Z,8.50
2022-12-09T23:08:47.408Z,8.50
2022-12-09T23:11:17.577Z,8.50
2022-12-09T23:13:45.329Z,8.50
2022-12-09T23:16:18.234Z,8.50
2022-12-09T23:18:45.913Z,8.50
2022-12-09T23:21:15.840Z,8.50
2022-12-09T23:23:43.328Z,8.40
2022-12-09T23:26:12.518Z,8.50
2022-12-09T23:28:41.901Z,8.50
2022-12-09T23:31:11.042Z,8.50
2022-12-09T23:33:39.484Z,8.50
2022-12-09T23:36:12.217Z,8.50
2022-12-09T23:38:39.691Z,8.50
2022-12-09T23:41:07.685Z,8.40
2022-12-09T23:43:36.472Z,8.40
2022-12-09T23:46:09.979Z,8.40
2022-12-09T23:48:41.768Z,8.50
2022-12-09T23:51:11.564Z,8.40
2022-12-09T23:53:39.650Z,8.40
2022-12-09T23:56:09.888Z,8.40
2022-12-09T23:58:36.699Z,8.30
